createdAt,value
2019-04-18T00:00:44.479Z,14.10
2019-04-18T00:03:23.773Z,14.00
2019-04-18T00:05:52.299Z,14.00
2019-04-18T00:08:20.478Z,13.90
2019-04-18T00:10:48.519Z,13.90
2019-04-18T00:13:16.939Z,14.10
2019-04-18T00:15:45.110Z,14.30
2019-04-18T00:18:13.283Z,13.90
2019-04-18T00:20:41.434Z,13.90
2019-04-18T00:23:09.753Z,13.90
2019-04-18T00:25:38.249Z,13.80
2019-04-18T00:28:06.793Z,13.80
2019-04-18T00:30:34.970Z,14.20
2019-04-18T00:33:03.622Z,13.80
2019-04-18T00:35:31.709Z,13.80
2019-04-18T00:38:00.102Z,13.80
2019-04-18T00:40:31.329Z,13.90
2019-04-18T00:42:59.690Z,13.80
2019-04-18T00:45:27.865Z,13.80
2019-04-18T00:47:56.182Z,13.80
2019-04-18T00:50:24.807Z,13.70
2019-04-18T00:52:53.263Z,13.70
2019-04-18T00:55:21.766Z,13.70
2019-04-18T00:57:49.825Z,13.70
2019-04-18T01:00:24.451Z,13.70
2019-04-18T01:02:52.416Z,13.70
2019-04-18T01:05:20.811Z,13.80
2019-04-18T01:07:48.927Z,13.80
2019-04-18T01:10:17.499Z,13.70
2019-04-18T01:12:45.726Z,13.70
2019-04-18T01:15:14.319Z,13.60
2019-04-18T01:17:42.607Z,13.90
2019-04-18T01:20:10.922Z,13.80
2019-04-18T01:22:38.972Z,13.60
2019-04-18T01:25:09.049Z,13.60
2019-04-18T01:27:37.488Z,14.00
2019-04-18T01:30:07.787Z,13.50
2019-04-18T01:32:35.963Z,13.50
2019-04-18T01:35:04.459Z,13.50
2019-04-18T01:37:34.180Z,13.50
2019-04-18T01:40:03.754Z,13.50
2019-04-18T01:42:39.950Z,13.50
2019-04-18T01:45:26.910Z,13.40
2019-04-18T01:47:57.371Z,13.50
2019-04-18T01:50:23.477Z,13.40
2019-04-18T01:52:50.527Z,13.40
2019-04-18T01:55:18.526Z,13.40
2019-04-18T01:57:46.582Z,13.30
2019-04-18T02:00:20.948Z,13.30
2019-04-18T02:02:48.646Z,13.40
2019-04-18T02:05:28.113Z,13.40
2019-04-18T02:07:57.094Z,13.30
2019-04-18T02:10:27.057Z,13.20
2019-04-18T02:12:53.242Z,13.50
2019-04-18T02:15:20.718Z,13.20
2019-04-18T02:17:49.781Z,13.20
2019-04-18T02:20:31.597Z,13.40
2019-04-18T02:22:58.041Z,13.10
2019-04-18T02:25:25.406Z,13.10
2019-04-18T02:27:55.061Z,13.30
2019-04-18T02:30:22.787Z,13.10
2019-04-18T02:32:49.897Z,13.10
2019-04-18T02:35:22.508Z,13.00
2019-04-18T02:37:46.356Z,12.90
2019-04-18T02:40:14.298Z,12.90
2019-04-18T02:42:41.706Z,12.80
2019-04-18T02:45:09.144Z,13.00
2019-04-18T02:47:38.841Z,12.80
2019-04-18T02:50:10.197Z,12.70
2019-04-18T02:52:37.169Z,12.80
2019-04-18T02:55:08.312Z,12.70
2019-04-18T02:57:37.192Z,12.70
2019-04-18T03:00:36.805Z,13.00
2019-04-18T03:03:13.179Z,12.60
2019-04-18T03:05:40.872Z,12.60
2019-04-18T03:08:08.153Z,12.90
2019-04-18T03:10:35.934Z,12.60
2019-04-18T03:13:04.810Z,12.50
2019-04-18T03:15:32.399Z,12.60
2019-04-18T03:18:02.637Z,12.50
2019-04-18T03:20:28.489Z,12.40
2019-04-18T03:22:55.546Z,12.40
2019-04-18T03:25:23.403Z,12.60
2019-04-18T03:27:50.887Z,12.40
2019-04-18T03:30:18.053Z,12.40
2019-04-18T03:32:45.214Z,12.40
2019-04-18T03:35:13.314Z,12.40
2019-04-18T03:37:44.841Z,12.50
2019-04-18T03:40:12.219Z,12.40
2019-04-18T03:42:39.695Z,12.30
2019-04-18T03:45:23.975Z,12.30
2019-04-18T03:47:53.705Z,12.30
2019-04-18T03:50:22.093Z,12.30
2019-04-18T03:52:50.451Z,12.90
2019-04-18T03:55:21.411Z,12.50
2019-04-18T03:57:49.813Z,12.50
2019-04-18T04:00:21.167Z,12.10
2019-04-18T04:02:48.358Z,12.30
2019-04-18T04:05:27.800Z,12.30
2019-04-18T04:07:58.563Z,12.30
2019-04-18T04:10:27.124Z,12.30
2019-04-18T04:12:56.949Z,12.30
2019-04-18T04:15:24.588Z,12.30
2019-04-18T04:18:06.801Z,12.40
2019-04-18T04:20:28.878Z,12.60
2019-04-18T04:22:57.443Z,12.30
2019-04-18T04:25:25.897Z,12.40
2019-04-18T04:27:54.645Z,12.30
2019-04-18T04:30:24.376Z,12.30
2019-04-18T04:32:52.667Z,12.30
2019-04-18T04:35:21.246Z,12.50
2019-04-18T04:37:48.899Z,12.70
2019-04-18T04:40:17.045Z,12.30
2019-04-18T04:42:46.404Z,12.30
2019-04-18T04:45:15.937Z,12.40
2019-04-18T04:47:52.438Z,12.30
2019-04-18T04:50:54.836Z,12.30
2019-04-18T04:53:24.854Z,12.30
2019-04-18T04:55:54.462Z,12.30
2019-04-18T04:58:30.758Z,12.30
2019-04-18T05:01:16.932Z,12.40
2019-04-18T05:03:50.395Z,12.20
2019-04-18T05:06:15.930Z,12.60
2019-04-18T05:08:44.478Z,12.20
2019-04-18T05:11:13.056Z,12.20
2019-04-18T05:13:41.263Z,12.30
2019-04-18T05:16:09.851Z,12.40
2019-04-18T05:18:39.246Z,12.50
2019-04-18T05:21:07.703Z,12.50
2019-04-18T05:23:36.531Z,12.50
2019-04-18T05:26:04.991Z,12.50
2019-04-18T05:28:34.422Z,12.50
2019-04-18T05:31:01.778Z,12.50
2019-04-18T05:33:30.165Z,12.40
2019-04-18T05:36:02.056Z,12.50
2019-04-18T05:38:30.136Z,12.60
2019-04-18T05:40:58.656Z,12.70
2019-04-18T05:43:27.217Z,12.70
2019-04-18T05:45:56.146Z,13.10
2019-04-18T05:49:00.357Z,13.20
2019-04-18T05:51:36.279Z,12.80
2019-04-18T05:54:10.657Z,12.90
2019-04-18T05:56:39.086Z,12.90
2019-04-18T05:59:20.069Z,12.90
2019-04-18T06:02:05.513Z,13.00
2019-04-18T06:04:52.474Z,13.10
2019-04-18T06:07:28.098Z,13.30
2019-04-18T06:09:55.562Z,13.20
2019-04-18T06:12:31.786Z,13.30
2019-04-18T06:15:03.134Z,13.40
2019-04-18T06:17:40.702Z,13.50
2019-04-18T06:20:09.480Z,13.50
2019-04-18T06:22:39.505Z,13.50
2019-04-18T06:25:33.674Z,13.60
2019-04-18T06:28:07.202Z,14.10
2019-04-18T06:30:42.030Z,13.70
2019-04-18T06:33:17.859Z,13.90
2019-04-18T06:35:46.458Z,13.90
2019-04-18T06:38:19.659Z,14.40
2019-04-18T06:40:47.590Z,14.40
2019-04-18T06:43:20.472Z,14.30
2019-04-18T06:45:46.205Z,14.30
2019-04-18T06:48:14.586Z,14.40
2019-04-18T06:50:43.318Z,14.90
2019-04-18T06:53:13.115Z,14.30
2019-04-18T06:55:42.795Z,14.30
2019-04-18T06:58:11.544Z,14.40
2019-04-18T07:00:40.541Z,14.40
2019-04-18T07:03:09.053Z,14.50
2019-04-18T07:05:37.534Z,14.60
2019-04-18T07:08:21.800Z,14.50
2019-04-18T07:11:00.516Z,14.60
2019-04-18T07:13:29.821Z,14.60
2019-04-18T07:15:57.329Z,14.80
2019-04-18T07:18:25.911Z,14.90
2019-04-18T07:20:58.922Z,14.80
2019-04-18T07:23:39.567Z,15.00
2019-04-18T07:26:08.834Z,15.00
2019-04-18T07:28:48.641Z,15.20
2019-04-18T07:31:18.745Z,15.40
2019-04-18T07:33:42.174Z,15.60
2019-04-18T07:36:09.346Z,15.60
2019-04-18T07:38:36.325Z,15.80
2019-04-18T07:41:03.525Z,16.40
2019-04-18T07:43:35.717Z,16.30
2019-04-18T07:46:05.478Z,17.20
2019-04-18T07:48:35.092Z,18.40
2019-04-18T07:51:05.116Z,19.90
2019-04-18T07:53:38.702Z,21.50
2019-04-18T07:56:07.292Z,23.40
2019-04-18T07:58:36.867Z,25.00
2019-04-18T08:01:05.584Z,26.60
2019-04-18T08:03:40.579Z,27.90
2019-04-18T08:06:09.443Z,28.80
2019-04-18T08:08:35.291Z,29.60
2019-04-18T08:11:02.874Z,30.30
2019-04-18T08:13:30.140Z,31.00
2019-04-18T08:15:58.282Z,32.00
2019-04-18T08:18:30.012Z,32.20
2019-04-18T08:20:57.799Z,32.10
2019-04-18T08:23:34.119Z,31.80
2019-04-18T08:25:55.032Z,31.70
2019-04-18T08:28:24.158Z,31.20
2019-04-18T08:30:52.444Z,30.00
2019-04-18T08:33:21.982Z,29.00
2019-04-18T08:36:09.444Z,27.30
2019-04-18T08:39:10.227Z,25.80
2019-04-18T08:41:45.623Z,24.70
2019-04-18T08:44:28.271Z,23.60
2019-04-18T08:47:09.046Z,23.00
2019-04-18T08:49:44.144Z,22.60
2019-04-18T08:52:14.302Z,22.30
2019-04-18T08:55:22.928Z,22.10
2019-04-18T08:57:50.298Z,21.70
2019-04-18T09:00:20.834Z,21.80
2019-04-18T09:02:47.991Z,21.40
2019-04-18T09:05:21.827Z,21.20
2019-04-18T09:07:51.336Z,21.10
2019-04-18T09:10:18.032Z,21.00
2019-04-18T09:12:46.127Z,21.00
2019-04-18T09:15:15.289Z,21.10
2019-04-18T09:17:48.872Z,20.90
2019-04-18T09:20:18.755Z,20.80
2019-04-18T09:22:46.251Z,20.60
2019-04-18T09:25:14.157Z,20.80
2019-04-18T09:27:41.512Z,20.90
2019-04-18T09:30:11.184Z,20.90
2019-04-18T09:32:38.264Z,21.00
2019-04-18T09:35:12.386Z,21.00
2019-04-18T09:37:36.540Z,21.00
2019-04-18T09:40:05.944Z,21.10
2019-04-18T09:42:35.260Z,21.10
2019-04-18T09:45:02.989Z,21.20
2019-04-18T09:47:30.569Z,21.20
2019-04-18T09:49:58.235Z,21.50
2019-04-18T09:52:28.791Z,21.30
2019-04-18T09:54:59.090Z,21.30
2019-04-18T09:57:26.910Z,21.00
2019-04-18T10:00:09.070Z,21.10
2019-04-18T10:02:27.468Z,21.10
2019-04-18T10:04:53.942Z,21.20
2019-04-18T10:07:28.675Z,21.20
2019-04-18T10:09:59.461Z,21.30
2019-04-18T10:12:27.022Z,21.40
2019-04-18T10:15:02.187Z,21.70
2019-04-18T10:17:30.225Z,21.70
2019-04-18T10:19:57.641Z,21.80
2019-04-18T10:22:27.893Z,21.80
2019-04-18T10:25:14.775Z,22.00
2019-04-18T10:27:43.734Z,22.30
2019-04-18T10:30:28.224Z,22.20
2019-04-18T10:32:52.214Z,22.30
2019-04-18T10:35:19.609Z,22.10
2019-04-18T10:37:47.029Z,22.20
2019-04-18T10:40:15.082Z,22.30
2019-04-18T10:42:42.133Z,22.30
2019-04-18T10:45:09.483Z,22.40
2019-04-18T10:47:51.969Z,22.30
2019-04-18T10:50:20.207Z,22.40
2019-04-18T10:52:48.782Z,22.40
2019-04-18T10:55:16.032Z,22.50
2019-04-18T10:57:45.106Z,22.50
2019-04-18T11:00:13.909Z,22.60
2019-04-18T11:02:41.530Z,22.60
2019-04-18T11:05:09.219Z,22.70
2019-04-18T11:07:37.091Z,22.70
2019-04-18T11:10:04.643Z,22.70
2019-04-18T11:12:36.473Z,22.60
2019-04-18T11:15:04.703Z,22.60
2019-04-18T11:17:32.245Z,22.50
2019-04-18T11:19:59.426Z,22.50
2019-04-18T11:22:26.847Z,22.50
2019-04-18T11:24:55.051Z,22.50
2019-04-18T11:27:24.125Z,22.50
2019-04-18T11:29:51.525Z,22.50
2019-04-18T11:32:22.217Z,22.70
2019-04-18T11:34:48.611Z,22.70
2019-04-18T11:37:15.943Z,22.80
2019-04-18T11:39:47.464Z,22.90
2019-04-18T11:42:14.914Z,22.90
2019-04-18T11:44:42.456Z,23.10
2019-04-18T11:47:09.934Z,23.10
2019-04-18T11:49:36.988Z,23.10
2019-04-18T11:52:04.433Z,23.20
2019-04-18T11:54:38.922Z,23.20
2019-04-18T11:57:06.916Z,23.10
2019-04-18T11:59:37.957Z,23.30
2019-04-18T12:02:08.109Z,23.20
2019-04-18T12:05:07.899Z,23.20
2019-04-18T12:07:37.879Z,23.10
2019-04-18T12:10:08.248Z,23.20
2019-04-18T12:12:35.178Z,23.20
2019-04-18T12:15:03.167Z,23.10
2019-04-18T12:17:30.816Z,23.10
2019-04-18T12:20:01.185Z,23.10
2019-04-18T12:22:29.739Z,23.10
2019-04-18T12:24:57.867Z,23.20
2019-04-18T12:27:25.143Z,23.20
2019-04-18T12:29:52.610Z,23.10
2019-04-18T12:32:20.028Z,23.10
2019-04-18T12:34:47.983Z,23.20
2019-04-18T12:37:16.663Z,23.10
2019-04-18T12:39:44.002Z,23.20
2019-04-18T12:42:11.437Z,23.10
2019-04-18T12:44:39.521Z,23.20
2019-04-18T12:47:07.270Z,23.20
2019-04-18T12:49:36.742Z,23.40
2019-04-18T12:52:12.131Z,23.10
2019-04-18T12:54:36.210Z,23.40
2019-04-18T12:57:03.652Z,23.30
2019-04-18T12:59:32.035Z,23.50
2019-04-18T13:02:00.715Z,23.40
2019-04-18T13:04:31.282Z,23.50
2019-04-18T13:07:00.161Z,23.50
2019-04-18T13:09:39.292Z,23.60
2019-04-18T13:12:19.958Z,23.60
2019-04-18T13:15:00.005Z,23.70
2019-04-18T13:17:39.439Z,24.10
2019-04-18T13:20:08.726Z,23.70
2019-04-18T13:22:37.434Z,23.90
2019-04-18T13:25:05.907Z,24.00
2019-04-18T13:27:35.678Z,23.80
2019-04-18T13:30:05.326Z,23.80
2019-04-18T13:32:33.497Z,23.90
2019-04-18T13:35:01.715Z,23.90
2019-04-18T13:37:34.519Z,23.80
2019-04-18T13:40:01.641Z,23.80
2019-04-18T13:42:29.722Z,23.90
2019-04-18T13:44:58.036Z,23.80
2019-04-18T13:47:26.223Z,23.80
2019-04-18T13:49:54.283Z,23.70
2019-04-18T13:52:22.347Z,23.80
2019-04-18T13:54:55.451Z,23.60
2019-04-18T13:57:22.481Z,23.70
2019-04-18T13:59:49.541Z,23.70
2019-04-18T14:02:22.096Z,23.70
2019-04-18T14:04:48.891Z,23.70
2019-04-18T14:07:17.041Z,23.60
2019-04-18T14:09:45.702Z,23.60
2019-04-18T14:12:13.805Z,23.60
2019-04-18T14:14:42.034Z,23.60
2019-04-18T14:17:12.003Z,23.70
2019-04-18T14:19:40.319Z,23.70
2019-04-18T14:22:07.830Z,23.80
2019-04-18T14:24:36.394Z,23.90
2019-04-18T14:27:05.565Z,23.70
2019-04-18T14:29:35.531Z,23.80
2019-04-18T14:32:04.657Z,23.60
2019-04-18T14:34:33.408Z,23.60
2019-04-18T14:37:01.759Z,23.50
2019-04-18T14:39:29.256Z,23.50
2019-04-18T14:42:03.892Z,23.60
2019-04-18T14:44:29.275Z,23.50
2019-04-18T14:46:58.974Z,23.40
2019-04-18T14:49:27.900Z,23.40
2019-04-18T14:51:56.682Z,23.40
2019-04-18T14:54:28.612Z,23.40
2019-04-18T14:56:58.457Z,23.30
2019-04-18T14:59:25.894Z,23.20
2019-04-18T15:01:54.597Z,23.10
2019-04-18T15:04:23.079Z,23.00
2019-04-18T15:06:50.636Z,23.00
2019-04-18T15:09:26.500Z,23.00
2019-04-18T15:11:55.016Z,22.90
2019-04-18T15:14:23.877Z,22.80
2019-04-18T15:16:57.914Z,22.80
2019-04-18T15:19:25.632Z,22.70
2019-04-18T15:21:53.780Z,22.90
2019-04-18T15:24:22.483Z,22.80
2019-04-18T15:26:51.283Z,22.70
2019-04-18T15:29:22.030Z,22.70
2019-04-18T15:31:51.293Z,22.60
2019-04-18T15:34:20.535Z,22.60
2019-04-18T15:36:52.683Z,22.50
2019-04-18T15:39:24.438Z,22.50
2019-04-18T15:41:54.247Z,22.40
2019-04-18T15:44:22.317Z,22.30
2019-04-18T15:46:56.534Z,22.30
2019-04-18T15:49:28.112Z,22.40
2019-04-18T15:51:56.878Z,22.30
2019-04-18T15:54:25.434Z,22.40
2019-04-18T15:56:54.389Z,22.40
2019-04-18T15:59:28.764Z,22.80
2019-04-18T16:02:00.120Z,22.50
2019-04-18T16:04:27.886Z,22.50
2019-04-18T16:06:55.649Z,22.40
2019-04-18T16:09:24.330Z,22.50
2019-04-18T16:11:53.534Z,22.40
2019-04-18T16:15:10.275Z,22.50
2019-04-18T16:17:37.618Z,22.50
2019-04-18T16:20:10.134Z,22.50
2019-04-18T16:22:37.701Z,22.40
2019-04-18T16:25:04.892Z,22.40
2019-04-18T16:27:32.663Z,22.40
2019-04-18T16:30:00.618Z,22.30
2019-04-18T16:32:33.807Z,22.50
2019-04-18T16:35:06.877Z,22.20
2019-04-18T16:37:34.046Z,22.10
2019-04-18T16:40:01.685Z,22.10
2019-04-18T16:42:31.564Z,22.30
2019-04-18T16:44:59.051Z,22.00
2019-04-18T16:47:27.069Z,22.00
2019-04-18T16:49:55.341Z,22.10
2019-04-18T16:52:23.014Z,22.20
2019-04-18T16:54:50.670Z,21.70
2019-04-18T16:57:17.862Z,21.60
2019-04-18T16:59:45.595Z,21.60
2019-04-18T17:02:13.377Z,21.50
2019-04-18T17:04:41.510Z,21.50
2019-04-18T17:07:08.980Z,21.40
2019-04-18T17:09:40.811Z,21.60
2019-04-18T17:12:09.054Z,21.40
2019-04-18T17:14:36.990Z,21.40
2019-04-18T17:17:04.955Z,21.30
2019-04-18T17:19:32.719Z,21.20
2019-04-18T17:22:00.380Z,21.10
2019-04-18T17:24:31.512Z,21.10
2019-04-18T17:27:00.356Z,21.10
2019-04-18T17:29:27.884Z,21.10
2019-04-18T17:31:55.903Z,21.30
2019-04-18T17:34:35.220Z,21.00
2019-04-18T17:37:23.159Z,20.90
2019-04-18T17:39:51.559Z,20.90
2019-04-18T17:42:04.168Z,21.10
2019-04-18T17:44:37.776Z,20.80
2019-04-18T17:47:04.632Z,20.80
2019-04-18T17:49:32.987Z,20.70
2019-04-18T17:52:09.792Z,20.70
2019-04-18T17:54:46.083Z,20.50
2019-04-18T17:57:04.709Z,20.50
2019-04-18T17:59:33.336Z,20.50
2019-04-18T18:02:11.245Z,20.40
2019-04-18T18:04:40.784Z,20.30
2019-04-18T18:07:05.263Z,20.80
2019-04-18T18:09:40.708Z,20.20
2019-04-18T18:12:09.666Z,20.20
2019-04-18T18:14:33.464Z,20.10
2019-04-18T18:17:09.847Z,20.10
2019-04-18T18:19:33.806Z,20.00
2019-04-18T18:22:07.339Z,20.00
2019-04-18T18:24:32.692Z,19.90
2019-04-18T18:27:03.849Z,19.80
2019-04-18T18:29:35.212Z,19.80
2019-04-18T18:32:03.190Z,19.70
2019-04-18T18:34:47.205Z,19.60
2019-04-18T18:37:04.607Z,19.60
2019-04-18T18:39:40.025Z,19.60
2019-04-18T18:42:07.650Z,19.50
2019-04-18T18:44:44.121Z,19.50
2019-04-18T18:47:07.390Z,19.40
2019-04-18T18:49:36.048Z,19.30
2019-04-18T18:52:05.506Z,19.60
2019-04-18T18:54:38.343Z,19.20
2019-04-18T18:57:11.071Z,19.20
2019-04-18T18:59:36.248Z,19.10
2019-04-18T19:02:10.004Z,19.10
2019-04-18T19:04:35.229Z,19.00
2019-04-18T19:07:03.884Z,19.00
2019-04-18T19:09:49.618Z,19.00
2019-04-18T19:12:13.602Z,18.90
2019-04-18T19:14:38.372Z,18.80
2019-04-18T19:17:10.781Z,18.70
2019-04-18T19:19:33.864Z,18.80
2019-04-18T19:22:04.982Z,18.70
2019-04-18T19:24:32.194Z,18.60
2019-04-18T19:27:12.381Z,18.80
2019-04-18T19:29:39.944Z,18.60
2019-04-18T19:32:06.114Z,18.70
2019-04-18T19:34:32.777Z,19.00
2019-04-18T19:37:13.293Z,18.60
2019-04-18T19:39:50.894Z,18.50
2019-04-18T19:42:08.844Z,18.50
2019-04-18T19:44:31.880Z,18.70
2019-04-18T19:47:00.294Z,18.50
2019-04-18T19:49:29.378Z,18.30
2019-04-18T19:51:58.071Z,18.30
2019-04-18T19:54:33.645Z,18.30
2019-04-18T19:56:58.033Z,18.20
2019-04-18T19:59:26.522Z,18.20
2019-04-18T20:01:54.818Z,18.20
2019-04-18T20:04:36.620Z,18.30
2019-04-18T20:07:21.673Z,18.40
2019-04-18T20:09:48.713Z,17.90
2019-04-18T20:12:18.437Z,18.10
2019-04-18T20:14:32.041Z,18.00
2019-04-18T20:17:00.277Z,17.90
2019-04-18T20:19:29.362Z,17.70
2019-04-18T20:22:00.747Z,17.90
2019-04-18T20:24:26.156Z,17.90
2019-04-18T20:26:54.961Z,17.90
2019-04-18T20:29:32.568Z,18.00
2019-04-18T20:31:56.269Z,17.80
2019-04-18T20:34:25.257Z,18.40
2019-04-18T20:37:04.808Z,17.80
2019-04-18T20:39:43.433Z,17.70
2019-04-18T20:44:37.557Z,17.60
2019-04-18T20:47:03.507Z,17.50
2019-04-18T20:49:44.566Z,17.50
2019-04-18T20:52:00.595Z,17.80
2019-04-18T20:54:43.656Z,17.50
2019-04-18T20:56:57.729Z,17.50
2019-04-18T20:59:26.386Z,17.40
2019-04-18T21:01:54.966Z,17.50
2019-04-18T21:04:24.770Z,17.30
2019-04-18T21:07:04.004Z,17.50
2019-04-18T21:09:32.534Z,17.30
2019-04-18T21:11:55.757Z,17.00
2019-04-18T21:14:24.027Z,17.20
2019-04-18T21:16:52.145Z,17.20
2019-04-18T21:19:20.676Z,17.10
2019-04-18T21:21:49.242Z,17.10
2019-04-18T21:24:18.160Z,17.30
2019-04-18T21:26:52.816Z,16.90
2019-04-18T21:29:18.012Z,16.90
2019-04-18T21:31:46.874Z,16.90
2019-04-18T21:34:16.793Z,17.10
2019-04-18T21:37:09.056Z,16.80
2019-04-18T21:39:22.284Z,16.80
2019-04-18T21:41:46.023Z,16.80
2019-04-18T21:44:15.545Z,16.70
2019-04-18T21:46:49.623Z,16.80
2019-04-18T21:49:14.315Z,16.60
2019-04-18T21:51:56.039Z,16.70
2019-04-18T21:54:23.543Z,16.30
2019-04-18T21:56:53.480Z,16.50
2019-04-18T21:59:33.871Z,16.50
2019-04-18T22:01:53.449Z,16.40
2019-04-18T22:04:27.603Z,16.40
2019-04-18T22:07:08.553Z,16.30
2019-04-18T22:09:22.154Z,16.30
2019-04-18T22:11:53.763Z,16.50
2019-04-18T22:14:18.882Z,16.40
2019-04-18T22:16:47.478Z,16.20
2019-04-18T22:19:15.675Z,16.20
2019-04-18T22:21:47.365Z,16.20
2019-04-18T22:24:18.828Z,16.10
2019-04-18T22:26:44.621Z,16.10
2019-04-18T22:29:16.738Z,16.00
2019-04-18T22:31:43.669Z,16.30
2019-04-18T22:34:17.520Z,15.90
2019-04-18T22:36:42.761Z,15.90
2019-04-18T22:39:20.117Z,15.90
2019-04-18T22:41:44.156Z,15.80
2019-04-18T22:44:18.120Z,15.80
2019-04-18T22:46:45.828Z,15.90
2019-04-18T22:49:18.643Z,15.70
2019-04-18T22:51:46.813Z,15.60
2019-04-18T22:54:12.409Z,15.50
2019-04-18T22:56:46.654Z,15.50
2019-04-18T22:59:15.848Z,15.40
2019-04-18T23:01:45.932Z,15.30
2019-04-18T23:04:16.308Z,15.30
2019-04-18T23:06:42.179Z,15.20
2019-04-18T23:09:15.219Z,15.10
2019-04-18T23:11:49.877Z,15.10
2019-04-18T23:14:14.963Z,15.00
2019-04-18T23:16:41.532Z,14.90
2019-04-18T23:19:12.179Z,14.90
2019-04-18T23:21:42.037Z,14.80
2019-04-18T23:24:11.488Z,14.80
2019-04-18T23:26:47.615Z,14.60
2019-04-18T23:29:12.557Z,14.60
2019-04-18T23:31:47.395Z,14.60
2019-04-18T23:34:11.330Z,14.50
2019-04-18T23:36:47.667Z,14.40
2019-04-18T23:39:20.353Z,14.40
2019-04-18T23:41:46.780Z,14.40
2019-04-18T23:44:18.043Z,14.30
2019-04-18T23:46:41.945Z,14.30
2019-04-18T23:49:17.738Z,14.20
2019-04-18T23:51:42.971Z,14.20
2019-04-18T23:54:13.415Z,14.10
2019-04-18T23:56:45.627Z,14.10
2019-04-18T23:59:10.897Z,14.00
